Time;durP1;ratioP1;P1;durP2;ratioP2;P2;SDS_P1;SDS_P2;PMS_P1;PMS_P2;Temp;Humidity;BMP_temperature;BMP_pressure;BME280_temperature;BME280_humidity;BME280_pressure;Samples;Min_cycle;Max_cycle;Signal;HPM_P1;HPM_P2
2022/05/24 00:01:53;;;;;;;3.97;2.60;;;17.00;99.90;;;;;;4989908;28;20193;-74
2022/05/24 00:04:20;;;;;;;2.73;2.50;;;17.00;99.90;;;;;;4986338;28;20204;-72
2022/05/24 00:06:46;;;;;;;4.33;2.77;;;17.00;99.90;;;;;;4990485;28;20567;-73
2022/05/24 00:09:13;;;;;;;4.20;2.90;;;16.90;99.90;;;;;;4985627;28;20205;-73
2022/05/24 00:11:40;;;;;;;3.00;2.47;;;16.90;99.90;;;;;;4985499;28;20204;-72
2022/05/24 00:14:07;;;;;;;4.17;2.90;;;16.90;99.90;;;;;;4989264;28;20197;-73
2022/05/24 00:16:33;;;;;;;4.20;2.90;;;16.90;99.90;;;;;;4987443;28;20232;-72
2022/05/24 00:19:00;;;;;;;3.03;2.57;;;16.90;99.90;;;;;;4990707;28;20572;-72
2022/05/24 00:21:27;;;;;;;4.27;2.90;;;17.00;99.90;;;;;;4988563;28;20224;-73
2022/05/24 00:23:54;;;;;;;2.73;2.40;;;17.00;99.90;;;;;;4989466;28;20684;-73
2022/05/24 00:26:29;;;;;;;3.27;2.13;;;16.90;99.90;;;;;;4988774;28;20217;-73
2022/05/24 00:28:55;;;;;;;3.63;2.73;;;16.90;99.90;;;;;;4986218;28;20276;-73
2022/05/24 00:31:22;;;;;;;3.07;2.70;;;16.90;99.90;;;;;;4983177;28;20204;-72
2022/05/24 00:33:49;;;;;;;4.77;2.70;;;17.00;99.90;;;;;;4989454;28;20236;-73
2022/05/24 00:36:16;;;;;;;4.13;2.97;;;17.00;99.90;;;;;;4986614;28;20218;-73
2022/05/24 00:38:43;;;;;;;6.60;3.30;;;17.00;99.90;;;;;;4986159;28;20216;-75
2022/05/24 00:41:13;;;;;;;5.10;3.50;;;16.90;99.90;;;;;;4986463;28;20220;-73
2022/05/24 00:43:49;;;;;;;5.47;3.43;;;17.00;99.90;;;;;;4988023;28;20193;-73
2022/05/24 00:46:22;;;;;;;4.70;3.17;;;17.00;99.90;;;;;;4988582;28;20396;-73
2022/05/24 00:49:02;;;;;;;4.93;3.80;;;17.00;99.90;;;;;;4987859;28;20700;-70
2022/05/24 00:51:38;;;;;;;5.90;3.00;;;17.00;99.90;;;;;;4987845;28;20205;-72
2022/05/24 00:54:05;;;;;;;5.30;3.20;;;16.90;99.90;;;;;;4983320;28;20208;-72
2022/05/24 00:56:55;;;;;;;4.67;3.07;;;16.80;99.90;;;;;;4990521;28;20220;-72
2022/05/24 00:59:45;;;;;;;6.17;3.23;;;16.80;99.90;;;;;;4989764;28;20228;-72
2022/05/24 01:02:12;;;;;;;9.53;3.57;;;16.80;99.90;;;;;;4989098;28;20649;-72
2022/05/24 01:04:39;;;;;;;5.47;3.40;;;16.80;99.90;;;;;;4983446;28;20666;-72
2022/05/24 01:07:05;;;;;;;4.67;3.40;;;16.80;99.90;;;;;;4981942;28;20243;-72
2022/05/24 01:09:49;;;;;;;5.10;3.40;;;16.80;99.90;;;;;;4987603;28;20197;-72
2022/05/24 01:12:20;;;;;;;6.07;3.60;;;16.80;99.90;;;;;;4988890;28;20201;-72
2022/05/24 01:14:47;;;;;;;5.93;3.50;;;16.80;99.90;;;;;;4981442;28;20221;-74
2022/05/24 01:17:15;;;;;;;5.40;3.10;;;16.70;99.90;;;;;;4979779;28;20233;-73
2022/05/24 01:19:45;;;;;;;5.80;3.30;;;16.70;99.90;;;;;;4985986;28;20213;-73
2022/05/24 01:22:27;;;;;;;4.33;3.30;;;16.60;99.90;;;;;;4986705;28;20217;-72
2022/05/24 01:25:09;;;;;;;6.03;3.27;;;16.50;99.90;;;;;;4980405;28;20243;-73
2022/05/24 01:27:37;;;;;;;3.67;2.43;;;16.50;99.90;;;;;;4983775;28;20217;-72
2022/05/24 01:30:04;;;;;;;4.57;2.77;;;16.50;99.90;;;;;;4988361;28;20251;-70
2022/05/24 01:38:06;;;;;;;4.60;3.00;;;16.50;99.90;;;;;;4981179;28;20272;-71
2022/05/24 01:40:33;;;;;;;3.00;2.70;;;16.40;99.90;;;;;;4986685;28;20266;-73
2022/05/24 01:43:00;;;;;;;3.07;2.60;;;16.40;99.90;;;;;;4982785;28;20296;-73
2022/05/24 01:45:34;;;;;;;3.47;2.83;;;16.40;99.90;;;;;;4984779;28;20215;-73
2022/05/24 01:48:07;;;;;;;2.50;2.30;;;16.40;99.90;;;;;;4986041;28;20196;-73
2022/05/24 01:50:36;;;;;;;4.47;2.50;;;16.40;99.90;;;;;;4980410;28;20200;-73
2022/05/24 01:53:09;;;;;;;2.83;2.50;;;16.30;99.90;;;;;;4986467;28;20243;-73
2022/05/24 01:55:52;;;;;;;3.43;3.07;;;16.30;99.90;;;;;;4986380;28;20204;-73
2022/05/24 01:58:21;;;;;;;4.60;3.13;;;16.20;99.90;;;;;;4983399;28;20233;-73
2022/05/24 02:00:58;;;;;;;6.00;3.20;;;16.20;99.90;;;;;;4989412;28;20207;-74
2022/05/24 02:03:24;;;;;;;4.17;3.57;;;16.20;99.90;;;;;;4985508;28;20189;-73
2022/05/24 02:05:51;;;;;;;3.40;3.10;;;16.00;99.90;;;;;;4984617;28;20287;-74
2022/05/24 02:08:18;;;;;;;3.80;3.37;;;16.00;99.90;;;;;;4984413;28;20201;-73
2022/05/24 02:10:50;;;;;;;4.70;3.40;;;15.80;99.90;;;;;;4984364;28;20676;-73
2022/05/24 02:13:27;;;;;;;4.50;3.53;;;15.70;99.90;;;;;;4986127;28;20217;-73
2022/05/24 02:15:57;;;;;;;4.63;3.30;;;15.50;99.90;;;;;;4988564;28;20193;-73
2022/05/24 02:18:26;;;;;;;4.57;3.53;;;15.50;99.90;;;;;;4992674;28;20672;-74
2022/05/24 02:20:53;;;;;;;5.20;4.10;;;15.40;99.90;;;;;;4993643;28;20193;-73
2022/05/24 02:23:20;;;;;;;5.20;4.60;;;15.40;99.90;;;;;;4992344;28;20548;-73
2022/05/24 02:25:55;;;;;;;3.83;3.30;;;15.40;99.90;;;;;;4989149;28;20657;-73
2022/05/24 02:28:30;;;;;;;5.63;3.73;;;15.30;99.90;;;;;;4993721;28;20224;-72
2022/05/24 02:31:04;;;;;;;5.13;3.90;;;15.20;99.90;;;;;;4991695;28;20196;-75
2022/05/24 02:33:34;;;;;;;5.20;3.40;;;15.20;99.90;;;;;;4984540;28;20209;-74
2022/05/24 02:36:01;;;;;;;5.67;3.97;;;15.20;99.90;;;;;;4989494;28;20209;-74
2022/05/24 02:38:28;;;;;;;9.17;4.40;;;15.20;99.90;;;;;;4989071;28;20218;-72
2022/05/24 02:43:40;;;;;;;6.80;4.50;;;15.10;99.90;;;;;;4985841;28;20197;-72
2022/05/24 02:46:08;;;;;;;6.80;4.63;;;15.00;99.90;;;;;;4981475;28;20209;-73
2022/05/24 02:48:38;;;;;;;6.83;4.47;;;15.00;99.90;;;;;;4993121;28;20251;-73
2022/05/24 02:51:11;;;;;;;5.77;4.40;;;14.90;99.90;;;;;;4988472;28;20707;-72
2022/05/24 02:53:39;;;;;;;6.00;4.77;;;14.90;99.90;;;;;;4993233;28;20200;-75
2022/05/24 02:56:07;;;;;;;6.70;5.10;;;15.00;99.90;;;;;;4989029;28;20315;-73
2022/05/24 02:58:35;;;;;;;7.90;4.53;;;15.00;99.90;;;;;;4989400;28;20661;-74
2022/05/24 03:01:02;;;;;;;6.07;4.73;;;15.00;99.90;;;;;;4986876;28;20193;-75
2022/05/24 03:03:29;;;;;;;7.77;4.97;;;15.00;99.90;;;;;;4989049;28;20262;-73
2022/05/24 03:05:56;;;;;;;6.60;4.97;;;15.00;99.90;;;;;;4992158;28;20835;-73
2022/05/24 03:11:10;;;;;;;6.93;5.53;;;14.90;99.90;;;;;;4989828;28;20188;-73
2022/05/24 03:16:22;;;;;;;7.20;5.27;;;14.90;99.90;;;;;;4987472;28;20254;-74
2022/05/24 03:18:49;;;;;;;10.30;5.97;;;14.90;99.90;;;;;;4988139;28;20216;-74
2022/05/24 03:21:16;;;;;;;9.67;5.63;;;15.00;99.90;;;;;;4992596;28;20193;-74
2022/05/24 03:23:43;;;;;;;7.43;5.70;;;15.00;99.90;;;;;;4984482;28;20204;-73
2022/05/24 03:26:11;;;;;;;7.33;6.17;;;14.90;99.90;;;;;;4983424;28;20267;-74
2022/05/24 03:28:38;;;;;;;8.50;5.97;;;15.00;99.90;;;;;;4988595;28;20201;-73
2022/05/24 03:31:05;;;;;;;8.13;5.70;;;15.00;99.90;;;;;;4987605;28;20317;-73
2022/05/24 03:33:32;;;;;;;10.07;5.87;;;15.10;99.90;;;;;;4984536;28;20195;-75
2022/05/24 03:35:59;;;;;;;7.20;5.70;;;15.10;99.90;;;;;;4984861;28;20217;-72
2022/05/24 03:38:28;;;;;;;7.73;6.10;;;15.30;99.90;;;;;;4991408;28;20263;-73
2022/05/24 03:40:55;;;;;;;9.63;6.10;;;15.40;99.90;;;;;;4988520;28;20677;-73
2022/05/24 03:43:22;;;;;;;9.83;6.17;;;15.40;99.90;;;;;;4989502;28;20251;-75
2022/05/24 03:45:49;;;;;;;7.13;5.63;;;15.50;99.90;;;;;;4984507;28;20197;-74
2022/05/24 03:48:16;;;;;;;8.33;6.17;;;15.60;99.90;;;;;;4986052;28;20247;-74
2022/05/24 03:50:43;;;;;;;9.80;5.83;;;15.60;99.90;;;;;;4988711;28;20194;-74
2022/05/24 03:53:10;;;;;;;8.07;5.73;;;15.60;99.90;;;;;;4988880;28;20212;-73
2022/05/24 03:55:36;;;;;;;8.80;5.93;;;15.70;99.90;;;;;;4987560;28;20243;-72
2022/05/24 03:58:03;;;;;;;7.50;5.50;;;15.70;99.90;;;;;;4990412;28;20193;-74
2022/05/24 04:00:36;;;;;;;9.53;6.63;;;15.80;99.90;;;;;;4982550;28;20216;-73
2022/05/24 04:03:03;;;;;;;7.53;6.07;;;15.80;99.90;;;;;;4984480;28;20654;-73
2022/05/24 04:05:31;;;;;;;9.60;5.37;;;15.80;99.90;;;;;;4991628;28;20235;-73
2022/05/24 04:07:59;;;;;;;8.13;5.97;;;15.90;99.90;;;;;;4991782;28;20212;-74
2022/05/24 04:10:27;;;;;;;9.30;5.50;;;15.90;99.90;;;;;;4986457;28;20209;-76
2022/05/24 04:12:53;;;;;;;9.23;5.47;;;15.90;99.90;;;;;;4990762;28;20665;-75
2022/05/24 04:15:20;;;;;;;8.17;6.50;;;16.00;99.90;;;;;;4991783;28;20208;-74
2022/05/24 04:17:47;;;;;;;7.87;6.37;;;16.10;99.90;;;;;;4991078;28;20647;-73
2022/05/24 04:20:15;;;;;;;10.83;7.70;;;16.20;99.90;;;;;;4988363;28;20223;-73
2022/05/24 04:22:43;;;;;;;9.13;7.27;;;16.30;99.90;;;;;;4989238;28;20201;-73
2022/05/24 04:25:12;;;;;;;11.97;8.13;;;16.30;99.90;;;;;;4988342;28;20516;-72
2022/05/24 04:27:39;;;;;;;10.57;7.73;;;16.40;99.90;;;;;;4983924;28;20213;-75
2022/05/24 04:30:08;;;;;;;10.33;8.10;;;16.50;99.90;;;;;;4989916;28;20203;-72
2022/05/24 04:32:34;;;;;;;9.37;7.93;;;16.50;99.90;;;;;;4988052;28;20205;-75
2022/05/24 04:35:01;;;;;;;11.40;7.70;;;16.60;99.90;;;;;;4983107;28;20284;-74
2022/05/24 04:37:28;;;;;;;10.80;7.63;;;16.60;99.90;;;;;;4987391;28;20217;-74
2022/05/24 04:39:55;;;;;;;9.00;7.60;;;16.60;99.90;;;;;;4980144;28;20590;-73
2022/05/24 04:42:22;;;;;;;10.67;7.97;;;16.50;99.90;;;;;;4983191;28;20201;-73
2022/05/24 04:44:56;;;;;;;12.10;8.07;;;16.50;99.90;;;;;;4983642;28;20205;-74
2022/05/24 04:47:24;;;;;;;11.30;7.77;;;16.60;99.90;;;;;;4984941;28;20229;-73
2022/05/24 04:49:56;;;;;;;10.00;7.60;;;16.70;99.90;;;;;;4984182;28;20212;-74
2022/05/24 04:52:27;;;;;;;9.73;7.50;;;16.80;99.90;;;;;;4989133;28;20240;-73
2022/05/24 04:54:54;;;;;;;9.57;7.23;;;16.80;99.90;;;;;;4986019;28;20201;-73
2022/05/24 04:57:21;;;;;;;8.47;6.53;;;16.80;99.90;;;;;;4983609;28;20232;-73
2022/05/24 04:59:49;;;;;;;10.43;7.30;;;16.80;99.90;;;;;;4985413;28;20213;-73
2022/05/24 05:02:17;;;;;;;8.03;6.97;;;16.80;99.90;;;;;;4975537;28;20217;-74
2022/05/24 05:04:44;;;;;;;9.73;7.00;;;16.90;99.90;;;;;;4987790;28;20613;-73
2022/05/24 05:07:12;;;;;;;8.63;6.97;;;16.90;99.90;;;;;;4989022;28;20219;-72
2022/05/24 05:09:39;;;;;;;10.53;6.80;;;16.80;99.90;;;;;;4979527;28;20200;-73
2022/05/24 05:12:07;;;;;;;7.57;6.23;;;16.90;99.90;;;;;;4984368;28;20673;-70
2022/05/24 05:14:35;;;;;;;8.23;5.70;;;16.90;99.90;;;;;;4990057;28;20615;-74
2022/05/24 05:17:02;;;;;;;7.50;5.67;;;17.00;99.90;;;;;;4983619;28;20228;-73
2022/05/24 05:19:29;;;;;;;7.67;5.27;;;17.00;99.90;;;;;;4988376;28;20235;-73
2022/05/24 05:21:56;;;;;;;6.67;5.33;;;17.00;99.90;;;;;;4983182;28;20208;-71
2022/05/24 05:24:24;;;;;;;11.87;5.93;;;16.90;99.90;;;;;;4987990;28;20200;-72
2022/05/24 05:26:50;;;;;;;7.33;5.03;;;16.80;99.90;;;;;;4989335;28;20261;-71
2022/05/24 05:31:16;;;;;;;7.53;4.57;;;16.60;99.90;;;;;;4987949;28;20212;-72
2022/05/24 05:32:04;;;;;;;4.60;3.60;;;16.40;99.90;;;;;;4988776;28;20215;-71
2022/05/24 05:34:31;;;;;;;3.73;3.00;;;16.30;99.90;;;;;;4989698;28;20204;-71
2022/05/24 05:36:57;;;;;;;3.37;2.57;;;16.20;99.90;;;;;;4988600;28;20221;-72
2022/05/24 05:39:24;;;;;;;3.70;2.30;;;16.10;99.90;;;;;;4988574;28;20700;-72
2022/05/24 05:41:52;;;;;;;3.27;2.50;;;16.10;99.90;;;;;;4984002;28;20197;-72
2022/05/24 05:44:19;;;;;;;3.33;2.70;;;16.10;99.90;;;;;;4979150;28;20198;-72
2022/05/24 05:46:45;;;;;;;2.80;2.50;;;16.10;99.90;;;;;;4979578;28;20225;-72
2022/05/24 05:49:15;;;;;;;2.70;2.40;;;16.10;99.90;;;;;;4986759;28;20212;-73
2022/05/24 05:51:42;;;;;;;3.27;2.53;;;16.00;99.90;;;;;;4977260;28;20204;-71
2022/05/24 05:54:09;;;;;;;4.07;2.50;;;16.10;99.90;;;;;;4975839;28;20194;-72
2022/05/24 05:56:35;;;;;;;3.97;2.30;;;16.10;99.90;;;;;;4969049;28;20212;-72
2022/05/24 05:59:03;;;;;;;2.67;2.20;;;16.10;99.90;;;;;;4979355;28;20197;-70
2022/05/24 06:01:31;;;;;;;2.80;2.27;;;15.90;99.90;;;;;;4981923;28;20202;-71
2022/05/24 06:03:58;;;;;;;3.00;2.30;;;15.60;99.90;;;;;;4985506;28;20201;-72
2022/05/24 06:06:28;;;;;;;2.60;1.70;;;15.40;99.90;;;;;;4979642;28;20231;-71
2022/05/24 06:08:55;;;;;;;1.57;1.30;;;15.10;99.90;;;;;;4978361;28;20201;-71
2022/05/24 06:11:23;;;;;;;2.00;1.60;;;15.00;99.90;;;;;;4978752;28;20699;-70
2022/05/24 06:13:51;;;;;;;2.00;1.43;;;15.00;99.90;;;;;;4982509;28;20212;-71
2022/05/24 06:16:18;;;;;;;1.43;1.30;;;15.00;99.90;;;;;;4976346;28;20225;-70
2022/05/24 06:18:45;;;;;;;1.33;1.10;;;15.10;99.90;;;;;;4977427;28;20208;-69
2022/05/24 06:21:12;;;;;;;1.73;1.30;;;15.30;99.90;;;;;;4981087;28;20229;-71
2022/05/24 06:23:38;;;;;;;1.60;1.10;;;15.40;99.90;;;;;;4986061;28;20192;-71
2022/05/24 06:26:05;;;;;;;1.37;1.03;;;15.60;99.90;;;;;;4981374;28;20213;-70
2022/05/24 06:28:32;;;;;;;2.43;1.10;;;15.80;99.90;;;;;;4983003;28;20215;-70
2022/05/24 06:30:58;;;;;;;1.23;0.90;;;16.00;99.90;;;;;;4980818;28;20216;-69
2022/05/24 06:33:25;;;;;;;1.97;1.33;;;16.20;99.90;;;;;;4979664;28;20201;-72
2022/05/24 06:35:52;;;;;;;0.77;0.77;;;16.30;99.90;;;;;;4985839;28;20201;-70
2022/05/24 06:38:19;;;;;;;0.93;0.80;;;16.50;99.90;;;;;;4980476;28;20590;-69
2022/05/24 06:40:46;;;;;;;1.10;0.90;;;16.60;99.90;;;;;;4984347;28;20217;-71
2022/05/24 06:43:14;;;;;;;1.00;0.90;;;16.70;99.90;;;;;;4987475;28;20577;-70
2022/05/24 06:45:41;;;;;;;1.30;1.00;;;16.80;99.90;;;;;;4980765;28;20229;-71
2022/05/24 06:48:11;;;;;;;1.13;0.80;;;16.70;99.90;;;;;;4982757;28;20221;-70
2022/05/24 06:50:40;;;;;;;1.20;0.90;;;16.60;99.90;;;;;;4977889;28;20197;-70
2022/05/24 06:53:08;;;;;;;1.10;0.97;;;16.60;99.90;;;;;;4977624;28;20576;-74
2022/05/24 06:55:37;;;;;;;1.43;0.73;;;16.60;99.90;;;;;;4983878;28;20235;-70
2022/05/24 06:58:04;;;;;;;0.80;0.80;;;16.60;99.90;;;;;;4979041;28;20209;-70
2022/05/24 07:03:16;;;;;;;1.67;0.70;;;16.70;99.90;;;;;;4988123;28;20277;-70
2022/05/24 07:05:44;;;;;;;0.90;0.80;;;16.90;99.90;;;;;;4983211;28;20192;-71
2022/05/24 07:08:12;;;;;;;1.13;1.03;;;16.90;99.90;;;;;;4982991;28;20193;-72
2022/05/24 07:10:39;;;;;;;1.07;0.80;;;17.20;99.90;;;;;;4990091;28;20205;-71
2022/05/24 07:13:12;;;;;;;1.30;0.90;;;17.40;99.90;;;;;;4988751;28;20473;-72
2022/05/24 07:15:38;;;;;;;1.60;0.70;;;17.60;99.90;;;;;;4979596;28;20216;-73
2022/05/24 07:18:05;;;;;;;1.00;0.70;;;18.20;99.90;;;;;;4984388;28;20210;-72
2022/05/24 07:20:34;;;;;;;1.33;0.70;;;18.70;99.90;;;;;;4991392;28;20220;-70
2022/05/24 07:23:09;;;;;;;1.57;0.80;;;19.00;99.90;;;;;;4992274;28;20205;-69
2022/05/24 07:25:37;;;;;;;0.60;0.60;;;19.20;99.90;;;;;;4984676;28;20672;-68
2022/05/24 07:28:04;;;;;;;2.10;1.20;;;19.10;99.90;;;;;;4980652;28;20209;-69
2022/05/24 07:30:31;;;;;;;1.23;0.70;;;18.90;99.90;;;;;;4985404;28;20581;-72
2022/05/24 07:32:58;;;;;;;2.00;0.70;;;18.80;99.90;;;;;;4980688;28;20197;-72
2022/05/24 07:35:25;;;;;;;1.40;0.90;;;18.70;99.90;;;;;;4985093;28;20202;-73
2022/05/24 07:37:52;;;;;;;1.17;0.80;;;18.70;99.90;;;;;;4984560;28;20221;-72
2022/05/24 07:45:56;;;;;;;1.43;0.60;;;19.10;99.90;;;;;;4985298;28;20218;-73
2022/05/24 07:48:24;;;;;;;2.80;0.87;;;19.20;99.90;;;;;;4984217;28;20251;-75
2022/05/24 07:50:51;;;;;;;0.63;0.60;;;19.70;99.90;;;;;;4987123;28;20215;-73
2022/05/24 07:53:18;;;;;;;1.13;0.70;;;20.10;99.90;;;;;;4989400;28;20205;-76
2022/05/24 07:55:45;;;;;;;1.07;0.80;;;20.40;99.90;;;;;;4981579;28;20205;-74
2022/05/24 07:58:13;;;;;;;1.00;0.70;;;19.80;99.90;;;;;;4984708;28;20201;-73
2022/05/24 08:00:40;;;;;;;0.50;0.50;;;19.60;99.90;;;;;;4987431;28;20227;-75
2022/05/24 08:03:08;;;;;;;0.63;0.50;;;19.60;99.90;;;;;;4990459;28;20204;-75
2022/05/24 08:05:36;;;;;;;7.50;0.60;;;19.50;99.90;;;;;;4981867;28;20260;-74
2022/05/24 08:08:05;;;;;;;0.50;0.50;;;19.70;99.90;;;;;;4985875;28;20198;-75
2022/05/24 08:10:33;;;;;;;1.40;0.53;;;19.30;99.90;;;;;;4986125;28;20197;-74
2022/05/24 08:13:04;;;;;;;0.70;0.60;;;19.00;99.90;;;;;;4981300;28;20204;-75
2022/05/24 08:15:31;;;;;;;1.57;0.70;;;18.80;99.90;;;;;;4981559;28;20211;-72
2022/05/24 08:17:58;;;;;;;0.63;0.63;;;19.10;99.90;;;;;;4979272;28;20614;-77
2022/05/24 08:20:25;;;;;;;0.60;0.60;;;19.50;99.90;;;;;;4975662;28;20220;-74
2022/05/24 08:22:52;;;;;;;0.70;0.60;;;19.60;99.90;;;;;;4978240;28;20205;-74
2022/05/24 08:25:19;;;;;;;0.90;0.47;;;19.80;99.90;;;;;;4973938;28;20197;-73
2022/05/24 08:27:45;;;;;;;0.40;0.40;;;20.30;99.90;;;;;;4976580;28;20222;-73
2022/05/24 08:30:14;;;;;;;0.50;0.50;;;20.40;99.90;;;;;;4978932;28;20685;-73
2022/05/24 08:32:42;;;;;;;0.93;0.50;;;20.60;99.90;;;;;;4979233;28;20193;-71
2022/05/24 08:35:12;;;;;;;0.80;0.40;;;20.40;99.90;;;;;;4978220;28;20204;-73
2022/05/24 08:37:40;;;;;;;1.05;0.50;;;20.30;99.90;;;;;;4977838;28;20216;-73
2022/05/24 08:40:09;;;;;;;0.97;0.50;;;20.10;99.90;;;;;;4976511;28;20579;-73
2022/05/24 08:43:22;;;;;;;0.93;0.50;;;19.50;99.90;;;;;;4976053;28;20196;-73
2022/05/24 08:48:51;;;;;;;0.80;0.70;;;19.50;99.90;;;;;;4977277;28;20284;-71
2022/05/24 08:51:30;;;;;;;1.10;1.00;;;19.40;99.90;;;;;;4979592;28;20204;-71
2022/05/24 08:54:10;;;;;;;0.50;0.50;;;19.50;99.90;;;;;;4977046;28;20204;-73
2022/05/24 08:57:11;;;;;;;1.13;0.53;;;19.60;99.90;;;;;;4981634;28;20225;-72
2022/05/24 08:59:51;;;;;;;0.47;0.40;;;19.60;99.90;;;;;;4982417;28;20211;-72
2022/05/24 09:02:20;;;;;;;0.90;0.40;;;19.60;99.90;;;;;;4982968;28;20212;-73
2022/05/24 09:04:47;;;;;;;1.03;0.50;;;19.70;99.90;;;;;;4979468;28;20300;-72
2022/05/24 09:07:48;;;;;;;1.50;0.60;;;20.00;99.90;;;;;;4974633;28;20217;-71
2022/05/24 09:10:15;;;;;;;0.70;0.50;;;20.20;99.90;;;;;;4980312;28;20205;-72
2022/05/24 09:13:19;;;;;;;0.63;0.60;;;20.20;99.90;;;;;;4983850;28;20244;-73
2022/05/24 09:15:51;;;;;;;0.50;0.50;;;20.20;99.90;;;;;;4982339;28;20212;-73
2022/05/24 09:18:40;;;;;;;0.73;0.57;;;20.30;99.90;;;;;;4978248;28;20213;-71
2022/05/24 09:21:19;;;;;;;1.13;0.53;;;20.60;99.90;;;;;;4975940;28;20217;-72
2022/05/24 09:23:51;;;;;;;1.23;0.70;;;20.50;99.90;;;;;;4979390;28;20278;-72
2022/05/24 09:26:24;;;;;;;1.80;0.50;;;20.50;99.90;;;;;;4978236;28;20267;-73
2022/05/24 09:28:55;;;;;;;5.13;0.60;;;20.10;99.90;;;;;;4983051;28;20200;-74
2022/05/24 09:31:32;;;;;;;0.80;0.70;;;19.70;99.90;;;;;;4986106;28;20201;-72
2022/05/24 09:34:04;;;;;;;1.07;0.60;;;20.10;99.90;;;;;;4983742;28;20197;-74
2022/05/24 09:36:33;;;;;;;0.40;0.40;;;20.30;99.90;;;;;;4976328;28;20247;-70
2022/05/24 09:39:02;;;;;;;0.88;0.57;;;20.50;99.90;;;;;;4984046;28;20291;-74
2022/05/24 09:41:29;;;;;;;1.15;0.60;;;20.70;99.90;;;;;;4984718;28;20283;-72
2022/05/24 09:44:13;;;;;;;3.22;0.73;;;20.70;99.90;;;;;;4983229;28;20582;-72
2022/05/24 09:46:42;;;;;;;0.77;0.60;;;20.60;99.90;;;;;;4983259;28;20224;-71
2022/05/24 09:49:22;;;;;;;3.40;0.70;;;20.60;99.90;;;;;;4988067;28;20280;-71
2022/05/24 09:51:54;;;;;;;0.75;0.70;;;20.90;99.90;;;;;;4977232;28;20208;-71
2022/05/24 09:54:25;;;;;;;0.98;0.68;;;21.00;99.90;;;;;;4978591;28;20296;-71
2022/05/24 09:56:59;;;;;;;1.33;0.60;;;20.90;99.90;;;;;;4981304;28;20221;-71
2022/05/24 09:59:28;;;;;;;0.70;0.70;;;20.70;99.90;;;;;;4986143;28;20208;-73
2022/05/24 10:01:55;;;;;;;1.20;0.77;;;20.80;99.90;;;;;;4977973;28;20248;-72
2022/05/24 10:04:34;;;;;;;0.60;0.52;;;20.70;99.90;;;;;;4976448;28;20288;-72
2022/05/24 10:07:23;;;;;;;1.20;0.60;;;20.80;99.90;;;;;;4977511;28;20754;-73
2022/05/24 10:10:19;;;;;;;0.55;0.50;;;20.50;99.90;;;;;;4984289;28;20205;-71
2022/05/24 10:13:01;;;;;;;2.00;0.65;;;20.70;99.90;;;;;;4978517;28;20255;-72
2022/05/24 10:16:07;;;;;;;2.43;0.80;;;20.30;99.90;;;;;;4982321;28;20669;-71
2022/05/24 10:18:59;;;;;;;1.63;1.03;;;19.90;99.90;;;;;;4942153;28;20208;-70
2022/05/24 10:21:51;;;;;;;1.20;0.90;;;19.80;99.90;;;;;;4983720;28;20609;-71
2022/05/24 10:24:27;;;;;;;0.70;0.70;;;20.00;99.90;;;;;;4950146;28;20201;-73
2022/05/24 10:27:00;;;;;;;1.55;0.63;;;20.30;99.90;;;;;;4982960;28;20216;-72
2022/05/24 10:29:49;;;;;;;1.27;0.80;;;20.60;99.90;;;;;;4976865;28;20197;-73
2022/05/24 10:38:29;;;;;;;3.35;1.02;;;20.70;99.90;;;;;;4979403;28;20566;-72
2022/05/24 10:40:59;;;;;;;1.27;0.85;;;20.70;99.90;;;;;;4989209;28;20228;-74
2022/05/24 10:43:38;;;;;;;1.45;0.95;;;21.00;99.90;;;;;;4980889;28;20201;-74
2022/05/24 10:46:16;;;;;;;1.23;0.77;;;21.50;99.90;;;;;;4979622;28;20225;-75
2022/05/24 10:49:04;;;;;;;1.63;0.70;;;21.70;99.90;;;;;;4988312;28;20255;-74
2022/05/24 10:51:48;;;;;;;1.25;0.60;;;22.10;99.90;;;;;;4985016;28;20209;-73
2022/05/24 10:54:52;;;;;;;0.98;0.63;;;22.20;99.90;;;;;;4984052;28;20193;-74
2022/05/24 10:57:28;;;;;;;0.73;0.60;;;22.60;99.90;;;;;;4950623;28;20232;-73
2022/05/24 11:00:12;;;;;;;1.38;0.60;;;23.10;99.90;;;;;;4986011;28;20204;-74
2022/05/24 11:02:45;;;;;;;0.70;0.70;;;22.90;99.90;;;;;;4985659;28;20216;-72
2022/05/24 11:05:29;;;;;;;0.70;0.70;;;22.50;99.90;;;;;;4984803;28;20208;-72
2022/05/24 11:08:08;;;;;;;2.47;0.60;;;22.30;99.90;;;;;;4976251;28;20221;-70
2022/05/24 11:10:40;;;;;;;1.23;0.70;;;21.50;99.90;;;;;;4983061;28;20197;-72
2022/05/24 11:13:12;;;;;;;3.47;0.70;;;21.00;99.90;;;;;;4983720;28;21596;-73
2022/05/24 11:16:00;;;;;;;1.58;0.68;;;21.00;99.90;;;;;;4980631;28;20197;-74
2022/05/24 11:18:40;;;;;;;1.83;0.75;;;21.00;99.90;;;;;;4979657;28;20201;-72
2022/05/24 11:21:26;;;;;;;4.22;3.03;;;21.50;99.90;;;;;;4990879;28;20220;-73
2022/05/24 11:24:05;;;;;;;3.67;1.70;;;21.90;99.90;;;;;;4987063;28;20196;-73
2022/05/24 11:26:35;;;;;;;1.25;0.63;;;22.50;99.90;;;;;;4980484;28;20216;-72
2022/05/24 11:29:28;;;;;;;3.60;0.80;;;23.00;99.90;;;;;;4979184;28;20201;-73
2022/05/24 11:32:06;;;;;;;1.20;0.70;;;23.00;99.90;;;;;;4978132;28;20512;-73
2022/05/24 11:34:37;;;;;;;0.60;0.45;;;22.90;99.90;;;;;;4980637;28;20193;-74
2022/05/24 11:37:22;;;;;;;0.65;0.60;;;22.80;99.90;;;;;;4976660;28;20225;-74
2022/05/24 11:39:49;;;;;;;0.77;0.70;;;23.30;99.90;;;;;;4974889;28;20562;-74
2022/05/24 11:42:41;;;;;;;0.90;0.70;;;23.50;99.90;;;;;;4980578;28;20221;-74
2022/05/24 11:45:30;;;;;;;1.05;0.65;;;23.30;99.90;;;;;;4977533;28;20669;-73
2022/05/24 11:48:17;;;;;;;0.70;0.70;;;22.90;99.90;;;;;;4979252;28;20227;-72
2022/05/24 11:50:46;;;;;;;2.20;0.80;;;22.20;99.90;;;;;;4984221;28;20201;-73
2022/05/24 11:53:21;;;;;;;1.58;0.80;;;22.10;99.90;;;;;;4989485;28;20268;-73
2022/05/24 11:56:08;;;;;;;1.15;0.70;;;22.00;99.90;;;;;;4983511;28;20220;-72
2022/05/24 11:58:35;;;;;;;0.73;0.52;;;22.40;99.90;;;;;;4983146;28;20211;-72
2022/05/24 12:01:07;;;;;;;1.85;0.70;;;21.80;99.90;;;;;;4979862;28;20228;-71
2022/05/24 12:09:25;;;;;;;1.30;0.63;;;21.30;99.90;;;;;;4981693;28;20205;-72
2022/05/24 12:12:14;;;;;;;1.15;0.70;;;21.50;99.90;;;;;;4987697;28;20249;-72
2022/05/24 12:14:41;;;;;;;1.15;0.80;;;21.90;99.90;;;;;;4986071;28;20212;-72
2022/05/24 12:17:16;;;;;;;0.75;0.60;;;22.00;99.90;;;;;;4984099;28;20655;-74
2022/05/24 12:19:48;;;;;;;0.68;0.60;;;21.90;99.90;;;;;;4989705;28;20196;-73
2022/05/24 12:22:30;;;;;;;1.13;0.82;;;22.00;99.90;;;;;;4985696;28;20227;-72
2022/05/24 12:25:05;;;;;;;3.80;1.10;;;21.90;99.90;;;;;;4985329;28;20223;-72
2022/05/24 12:27:51;;;;;;;0.95;0.68;;;22.10;99.90;;;;;;4985691;28;20808;-73
2022/05/24 12:30:29;;;;;;;1.40;0.70;;;22.50;99.90;;;;;;4986486;28;20215;-72
2022/05/24 12:33:04;;;;;;;0.50;0.50;;;22.40;99.90;;;;;;4984364;28;20208;-74
2022/05/24 12:35:32;;;;;;;1.23;0.70;;;22.40;99.90;;;;;;4987069;28;20204;-71
2022/05/24 12:37:58;;;;;;;0.95;0.70;;;22.60;99.90;;;;;;4985451;28;20248;-72
2022/05/24 12:40:29;;;;;;;0.77;0.70;;;22.40;99.90;;;;;;4987455;28;20292;-70
2022/05/24 12:43:12;;;;;;;0.75;0.70;;;22.30;99.90;;;;;;4987841;28;20329;-71
2022/05/24 12:45:43;;;;;;;2.53;0.90;;;21.90;99.90;;;;;;4984262;28;20220;-70
2022/05/24 12:48:37;;;;;;;1.30;0.80;;;21.80;99.90;;;;;;4984379;28;20204;-69
2022/05/24 12:51:09;;;;;;;1.85;0.70;;;21.70;99.90;;;;;;4979873;28;20189;-71
2022/05/24 12:53:38;;;;;;;1.25;0.90;;;21.50;99.90;;;;;;4980197;28;20673;-72
2022/05/24 12:56:14;;;;;;;2.13;0.80;;;21.90;99.90;;;;;;4987033;28;20215;-72
2022/05/24 12:58:46;;;;;;;0.65;0.60;;;22.20;99.90;;;;;;4981761;28;20239;-71
2022/05/24 13:01:20;;;;;;;1.67;0.60;;;21.90;99.90;;;;;;4986725;28;20271;-72
2022/05/24 13:03:55;;;;;;;1.48;0.80;;;21.80;99.90;;;;;;4987236;28;20594;-71
2022/05/24 13:06:34;;;;;;;0.88;0.68;;;22.00;99.90;;;;;;4988066;28;20256;-73
2022/05/24 13:09:24;;;;;;;2.10;0.60;;;22.20;99.90;;;;;;4984836;28;20209;-71
2022/05/24 13:11:58;;;;;;;1.33;0.70;;;22.10;99.90;;;;;;4984096;28;20208;-71
2022/05/24 13:14:27;;;;;;;1.60;0.60;;;22.00;99.90;;;;;;4984703;28;20207;-73
2022/05/24 13:16:54;;;;;;;3.35;0.77;;;22.10;99.90;;;;;;4983922;28;20213;-70
2022/05/24 13:19:21;;;;;;;0.73;0.73;;;22.20;99.90;;;;;;4986010;28;20197;-71
2022/05/24 13:21:55;;;;;;;2.45;0.70;;;22.20;99.90;;;;;;4979600;28;20220;-73
2022/05/24 13:24:22;;;;;;;2.92;0.60;;;22.30;99.90;;;;;;4986911;28;20208;-72
2022/05/24 13:27:04;;;;;;;0.90;0.60;;;22.30;99.90;;;;;;4977257;28;20209;-72
2022/05/24 13:33:33;;;;;;;1.60;0.70;;;22.70;99.90;;;;;;4980211;28;20193;-69
2022/05/24 13:35:03;;;;;;;0.60;0.60;;;22.70;99.90;;;;;;4989024;28;20208;-73
2022/05/24 13:37:52;;;;;;;1.33;0.55;;;22.40;99.90;;;;;;4984732;28;20228;-71
2022/05/24 13:40:20;;;;;;;0.52;0.52;;;22.40;99.90;;;;;;4981298;28;20201;-71
2022/05/24 13:42:57;;;;;;;0.70;0.70;;;22.90;99.90;;;;;;4985979;28;20228;-74
2022/05/24 13:45:27;;;;;;;0.88;0.73;;;23.20;99.90;;;;;;4984895;28;20209;-71
2022/05/24 13:47:59;;;;;;;3.25;0.80;;;23.00;99.90;;;;;;4986235;28;20220;-73
2022/05/24 13:50:42;;;;;;;0.98;0.68;;;23.00;99.90;;;;;;4985992;28;20212;-71